createdAt,value
2022-12-22T00:03:10.772Z,92.79
2022-12-22T00:15:11.017Z,92.88
2022-12-22T00:27:11.480Z,92.21
2022-12-22T00:39:11.936Z,92.68
2022-12-22T00:51:12.372Z,92.31
2022-12-22T01:03:12.925Z,92.60
2022-12-22T01:15:13.298Z,93.36
2022-12-22T01:27:13.749Z,93.97
2022-12-22T01:39:14.168Z,93.94
2022-12-22T01:51:14.619Z,92.78
2022-12-22T02:03:15.126Z,92.95
2022-12-22T02:15:15.549Z,92.31
2022-12-22T02:27:16.005Z,92.41
2022-12-22T02:39:16.430Z,93.36
2022-12-22T02:51:16.897Z,94.18
2022-12-22T03:03:17.533Z,92.42
2022-12-22T03:15:17.795Z,92.21
2022-12-22T03:27:18.276Z,93.22
2022-12-22T03:39:18.664Z,93.05
2022-12-22T03:51:19.134Z,92.47
2022-12-22T04:03:19.679Z,94.56
2022-12-22T04:15:20.065Z,95.72
2022-12-22T04:27:20.495Z,95.65
2022-12-22T04:39:20.974Z,94.56
2022-12-22T04:51:21.371Z,94.57
2022-12-22T05:03:21.914Z,95.21
2022-12-22T05:15:22.320Z,93.57
2022-12-22T05:27:22.719Z,93.95
2022-12-22T05:39:23.232Z,93.87
2022-12-22T05:51:23.702Z,94.99
2022-12-22T06:03:24.145Z,96.02
2022-12-22T06:15:24.579Z,95.66
2022-12-22T06:27:25.031Z,96.12
2022-12-22T06:39:25.487Z,96.22
2022-12-22T06:51:25.933Z,95.15
2022-12-22T07:03:26.480Z,93.56
2022-12-22T07:15:26.821Z,92.89
2022-12-22T07:27:27.315Z,93.51
2022-12-22T07:39:27.736Z,94.31
2022-12-22T07:51:28.170Z,94.37
2022-12-22T08:03:28.772Z,94.53
2022-12-22T08:15:29.120Z,93.65
2022-12-22T08:27:29.527Z,93.09
2022-12-22T08:39:29.959Z,93.65
2022-12-22T08:51:30.404Z,93.96
2022-12-22T09:03:30.965Z,92.90
2022-12-22T09:15:31.329Z,92.65
2022-12-22T09:27:31.804Z,91.31
2022-12-22T09:39:32.249Z,90.64
2022-12-22T09:51:32.716Z,92.10
2022-12-22T10:03:33.216Z,90.37
2022-12-22T10:15:33.563Z,89.40
2022-12-22T10:27:36.198Z,90.15
2022-12-22T10:39:34.587Z,88.19
2022-12-22T10:51:34.966Z,87.70
2022-12-22T11:03:35.519Z,85.51
2022-12-22T11:15:35.878Z,84.09
2022-12-22T11:27:40.771Z,82.81
2022-12-22T11:39:36.766Z,83.73
2022-12-22T11:51:37.216Z,83.79
2022-12-22T12:03:37.844Z,84.53
2022-12-22T12:15:38.219Z,85.57
2022-12-22T12:27:38.551Z,87.33
2022-12-22T12:39:39.015Z,88.42
2022-12-22T12:51:39.506Z,88.70
2022-12-22T13:04:02.550Z,90.51
2022-12-22T13:15:40.515Z,91.50
2022-12-22T13:27:40.851Z,93.93
2022-12-22T13:39:41.278Z,93.76
2022-12-22T13:51:41.778Z,94.32
2022-12-22T14:03:59.608Z,94.88
2022-12-22T14:15:42.651Z,96.42
2022-12-22T14:27:43.105Z,96.25
2022-12-22T14:39:43.554Z,96.57
2022-12-22T14:51:43.996Z,96.69
2022-12-22T15:03:44.596Z,96.23
2022-12-22T15:15:44.882Z,96.66
2022-12-22T15:27:45.394Z,97.80
2022-12-22T15:39:45.844Z,96.96
2022-12-22T15:51:46.285Z,97.11
2022-12-22T16:03:46.904Z,97.35
2022-12-22T16:15:47.281Z,100.00
2022-12-22T16:27:47.621Z,100.00
2022-12-22T16:39:48.078Z,100.00
2022-12-22T16:51:48.531Z,100.00
2022-12-22T17:03:49.058Z,100.00
2022-12-22T17:15:49.463Z,100.00
2022-12-22T17:27:49.888Z,100.00
2022-12-22T17:39:50.398Z,100.00
2022-12-22T17:51:50.907Z,100.00
2022-12-22T18:03:51.328Z,100.00
2022-12-22T18:15:51.754Z,100.00
2022-12-22T18:27:52.131Z,100.00
2022-12-22T18:39:52.692Z,100.00
2022-12-22T18:51:53.082Z,100.00
2022-12-22T19:03:53.481Z,100.00
2022-12-22T19:15:53.992Z,100.00
2022-12-22T19:27:54.427Z,100.00
2022-12-22T19:39:54.856Z,100.00
2022-12-22T19:51:55.306Z,100.00
2022-12-22T20:03:55.773Z,100.00
2022-12-22T20:15:56.199Z,100.00
2022-12-22T20:27:56.670Z,100.00
2022-12-22T20:39:57.146Z,100.00
2022-12-22T20:51:57.611Z,100.00
2022-12-22T21:03:58.126Z,100.00
2022-12-22T21:15:58.477Z,100.00
2022-12-22T21:27:58.887Z,100.00
2022-12-22T21:39:59.380Z,100.00
2022-12-22T21:51:59.867Z,100.00
2022-12-22T22:04:00.353Z,100.00
2022-12-22T22:16:00.763Z,100.00
2022-12-22T22:28:01.149Z,100.00
2022-12-22T22:40:01.662Z,100.00
2022-12-22T22:52:02.072Z,100.00
2022-12-22T23:04:02.651Z,100.00
2022-12-22T23:16:03.108Z,100.00
2022-12-22T23:28:03.461Z,100.00
2022-12-22T23:40:25.608Z,100.00
2022-12-22T23:52:04.363Z,100.00
